createdAt,value
2018-02-07T00:00:49.839Z,1.40
2018-02-07T00:03:18.086Z,1.50
2018-02-07T00:05:46.311Z,1.20
2018-02-07T00:08:14.617Z,0.90
2018-02-07T00:10:43.675Z,1.10
2018-02-07T00:13:11.908Z,1.10
2018-02-07T00:15:40.206Z,1.00
2018-02-07T00:18:08.689Z,1.10
2018-02-07T00:20:37.696Z,1.10
2018-02-07T00:23:05.943Z,1.10
2018-02-07T00:25:34.240Z,1.20
2018-02-07T00:28:02.490Z,1.20
2018-02-07T00:30:30.741Z,1.40
2018-02-07T00:32:59.783Z,1.40
2018-02-07T00:35:28.014Z,1.40
2018-02-07T00:37:56.280Z,1.40
2018-02-07T00:40:25.347Z,1.40
2018-02-07T00:42:53.570Z,1.40
2018-02-07T00:45:21.884Z,0.90
2018-02-07T00:47:50.144Z,1.30
2018-02-07T00:50:18.391Z,1.40
2018-02-07T00:52:46.834Z,1.40
2018-02-07T00:55:15.095Z,1.50
2018-02-07T00:57:43.326Z,1.00
2018-02-07T01:00:14.380Z,1.50
2018-02-07T01:02:42.640Z,1.20
2018-02-07T01:05:10.872Z,1.40
2018-02-07T01:07:39.182Z,1.30
2018-02-07T01:10:08.173Z,1.10
2018-02-07T01:12:37.164Z,1.20
2018-02-07T01:15:06.218Z,0.80
2018-02-07T01:17:34.437Z,0.80
2018-02-07T01:20:03.442Z,1.00
2018-02-07T01:22:31.723Z,1.00
2018-02-07T01:24:59.966Z,1.10
2018-02-07T01:27:29.017Z,1.10
2018-02-07T01:29:57.245Z,1.10
2018-02-07T01:32:26.252Z,1.00
2018-02-07T01:34:54.618Z,1.00
2018-02-07T01:37:22.869Z,1.10
2018-02-07T01:39:51.102Z,1.30
2018-02-07T01:42:19.493Z,0.80
2018-02-07T01:44:47.738Z,1.20
2018-02-07T01:47:15.990Z,1.10
2018-02-07T01:49:45.171Z,2.40
2018-02-07T01:52:13.418Z,1.00
2018-02-07T01:54:41.654Z,1.50
2018-02-07T01:57:09.945Z,1.20
2018-02-07T01:59:38.180Z,1.10
2018-02-07T02:02:06.416Z,1.20
2018-02-07T02:04:34.881Z,1.10
2018-02-07T02:07:03.125Z,1.10
2018-02-07T02:09:31.348Z,0.90
2018-02-07T02:11:59.650Z,1.20
2018-02-07T02:14:27.891Z,1.10
2018-02-07T02:16:56.129Z,1.00
2018-02-07T02:19:25.289Z,1.00
2018-02-07T02:21:53.506Z,0.90
2018-02-07T02:24:21.747Z,1.00
2018-02-07T02:26:50.003Z,0.90
2018-02-07T02:29:18.242Z,1.00
2018-02-07T02:31:46.505Z,0.90
2018-02-07T02:34:14.762Z,0.60
2018-02-07T02:36:43.817Z,0.70
2018-02-07T02:39:12.084Z,0.70
2018-02-07T02:41:40.309Z,0.50
2018-02-07T02:44:09.410Z,0.80
2018-02-07T02:46:37.642Z,0.80
2018-02-07T02:49:05.877Z,1.10
2018-02-07T02:51:34.137Z,1.20
2018-02-07T02:54:02.380Z,1.00
2018-02-07T02:56:30.654Z,1.00
2018-02-07T02:58:58.880Z,1.20
2018-02-07T03:01:27.305Z,1.10
2018-02-07T03:03:55.559Z,1.20
2018-02-07T03:06:23.792Z,1.10
2018-02-07T03:08:52.065Z,1.30
2018-02-07T03:11:21.124Z,1.20
2018-02-07T03:13:49.364Z,1.20
2018-02-07T03:16:17.602Z,1.00
2018-02-07T03:18:46.611Z,0.90
2018-02-07T03:21:14.893Z,0.90
2018-02-07T03:23:43.135Z,0.90
2018-02-07T03:26:11.363Z,1.00
2018-02-07T03:28:39.644Z,1.00
2018-02-07T03:31:07.884Z,1.00
2018-02-07T03:33:36.130Z,1.10
2018-02-07T03:36:04.381Z,1.10
2018-02-07T03:38:32.600Z,1.20
2018-02-07T03:41:01.827Z,1.20
2018-02-07T03:43:30.068Z,1.20
2018-02-07T03:45:59.078Z,0.60
2018-02-07T03:48:28.041Z,0.60
2018-02-07T03:50:56.269Z,1.00
2018-02-07T03:53:25.159Z,1.10
2018-02-07T03:55:53.435Z,1.00
2018-02-07T03:58:21.676Z,1.10
2018-02-07T04:00:50.004Z,1.20
2018-02-07T04:03:18.224Z,1.00
2018-02-07T04:05:46.458Z,1.10
2018-02-07T04:08:14.768Z,1.00
2018-02-07T04:10:43.776Z,0.90
2018-02-07T04:13:12.001Z,0.90
2018-02-07T04:15:40.267Z,1.20
2018-02-07T04:18:08.503Z,1.20
2018-02-07T04:20:36.765Z,1.20
2018-02-07T04:23:05.760Z,1.30
2018-02-07T04:25:34.799Z,1.10
2018-02-07T04:28:03.037Z,1.10
2018-02-07T04:30:31.378Z,1.10
2018-02-07T04:32:59.630Z,1.00
2018-02-07T04:35:27.878Z,1.20
2018-02-07T04:37:56.379Z,1.40
2018-02-07T04:40:24.620Z,1.30
2018-02-07T04:42:53.622Z,1.30
2018-02-07T04:45:21.927Z,1.30
2018-02-07T04:47:50.158Z,1.00
2018-02-07T04:50:19.159Z,1.20
2018-02-07T04:52:48.221Z,1.30
2018-02-07T04:55:16.474Z,1.30
2018-02-07T04:57:44.699Z,0.80
2018-02-07T05:00:13.727Z,1.30
2018-02-07T05:02:41.988Z,1.30
2018-02-07T05:05:10.266Z,1.30
2018-02-07T05:07:38.614Z,1.30
2018-02-07T05:10:07.609Z,1.50
2018-02-07T05:12:36.647Z,1.30
2018-02-07T05:15:04.944Z,1.20
2018-02-07T05:17:33.172Z,1.20
2018-02-07T05:20:01.445Z,1.10
2018-02-07T05:22:29.692Z,1.20
2018-02-07T05:24:57.993Z,1.40
2018-02-07T05:27:26.225Z,1.10
2018-02-07T05:29:54.462Z,1.30
2018-02-07T05:32:22.783Z,1.30
2018-02-07T05:34:51.029Z,1.40
2018-02-07T05:37:19.267Z,1.30
2018-02-07T05:39:47.568Z,1.10
2018-02-07T05:42:15.830Z,1.00
2018-02-07T05:44:44.075Z,1.00
2018-02-07T05:47:13.141Z,1.20
2018-02-07T05:49:41.367Z,1.20
2018-02-07T05:52:09.593Z,1.20
2018-02-07T05:54:37.902Z,1.20
2018-02-07T05:57:06.896Z,1.30
2018-02-07T05:59:35.179Z,1.20
2018-02-07T06:02:04.200Z,1.30
2018-02-07T06:04:32.514Z,1.30
2018-02-07T06:07:00.737Z,1.40
2018-02-07T06:09:28.981Z,1.40
2018-02-07T06:11:58.089Z,1.20
2018-02-07T06:14:26.313Z,1.20
2018-02-07T06:16:54.552Z,1.20
2018-02-07T06:19:23.055Z,1.40
2018-02-07T06:21:51.289Z,1.60
2018-02-07T06:24:19.511Z,1.30
2018-02-07T06:26:47.907Z,1.50
2018-02-07T06:29:16.137Z,1.30
2018-02-07T06:31:44.368Z,1.30
2018-02-07T06:34:12.660Z,1.60
2018-02-07T06:36:41.654Z,1.40
2018-02-07T06:39:10.649Z,1.40
2018-02-07T06:41:39.694Z,1.30
2018-02-07T06:44:07.935Z,1.30
2018-02-07T06:46:36.198Z,1.30
2018-02-07T06:49:05.250Z,1.60
2018-02-07T06:51:33.562Z,1.60
2018-02-07T06:54:02.594Z,1.20
2018-02-07T06:56:30.942Z,1.20
2018-02-07T06:58:59.966Z,1.70
2018-02-07T07:01:28.226Z,1.70
2018-02-07T07:03:56.564Z,1.70
2018-02-07T07:06:24.852Z,1.80
2018-02-07T07:08:53.171Z,1.80
2018-02-07T07:11:21.443Z,1.80
2018-02-07T07:13:49.691Z,1.70
2018-02-07T07:16:18.713Z,2.00
2018-02-07T07:18:46.994Z,2.00
2018-02-07T07:21:15.209Z,2.10
2018-02-07T07:23:43.519Z,2.30
2018-02-07T07:26:12.524Z,2.10
2018-02-07T07:28:40.774Z,2.10
2018-02-07T07:31:09.844Z,2.40
2018-02-07T07:33:38.130Z,2.40
2018-02-07T07:36:06.380Z,2.70
2018-02-07T07:38:34.733Z,2.50
2018-02-07T07:41:02.971Z,2.20
2018-02-07T07:43:31.975Z,2.30
2018-02-07T07:46:00.265Z,2.30
2018-02-07T07:48:28.600Z,1.90
2018-02-07T07:50:56.854Z,2.20
2018-02-07T07:53:25.861Z,2.10
2018-02-07T07:55:54.654Z,2.10
2018-02-07T07:58:22.911Z,1.90
2018-02-07T08:00:51.949Z,2.10
2018-02-07T08:03:21.028Z,1.80
2018-02-07T08:05:50.112Z,2.00
2018-02-07T08:08:18.366Z,2.00
2018-02-07T08:10:46.673Z,2.10
2018-02-07T08:13:15.002Z,2.30
2018-02-07T08:15:43.272Z,2.20
2018-02-07T08:18:11.678Z,2.30
2018-02-07T08:20:39.956Z,2.20
2018-02-07T08:23:08.206Z,2.20
2018-02-07T08:25:36.536Z,2.40
2018-02-07T08:28:04.789Z,2.30
2018-02-07T08:30:33.031Z,2.30
2018-02-07T08:33:01.474Z,2.20
2018-02-07T08:35:29.790Z,2.20
2018-02-07T08:37:58.804Z,2.40
2018-02-07T08:40:27.164Z,2.40
2018-02-07T08:42:55.402Z,2.20
2018-02-07T08:45:24.408Z,2.40
2018-02-07T08:47:52.678Z,2.40
2018-02-07T08:50:20.980Z,2.50
2018-02-07T08:52:49.250Z,2.50
2018-02-07T08:55:17.528Z,2.50
2018-02-07T08:57:45.832Z,2.50
2018-02-07T09:00:14.091Z,2.50
2018-02-07T09:02:42.340Z,2.40
2018-02-07T09:05:10.674Z,2.60
2018-02-07T09:07:38.931Z,2.40
2018-02-07T09:10:07.167Z,2.30
2018-02-07T09:12:35.504Z,2.20
2018-02-07T09:15:03.728Z,2.30
2018-02-07T09:17:32.018Z,2.40
2018-02-07T09:20:00.320Z,2.30
2018-02-07T09:22:28.576Z,2.50
2018-02-07T09:24:56.815Z,2.50
2018-02-07T09:27:25.107Z,2.50
2018-02-07T09:29:53.461Z,2.60
2018-02-07T09:32:21.706Z,2.70
2018-02-07T09:34:49.968Z,2.70
2018-02-07T09:37:18.264Z,2.80
2018-02-07T09:39:46.544Z,2.60
2018-02-07T09:42:15.640Z,2.80
2018-02-07T09:44:44.737Z,2.80
2018-02-07T09:47:13.010Z,2.80
2018-02-07T09:49:41.297Z,2.70
2018-02-07T09:52:10.355Z,2.90
2018-02-07T09:54:38.698Z,2.90
2018-02-07T09:57:06.946Z,2.90
2018-02-07T09:59:35.991Z,3.10
2018-02-07T10:02:04.330Z,3.00
2018-02-07T10:04:32.746Z,2.90
2018-02-07T10:07:01.134Z,2.80
2018-02-07T10:09:29.455Z,3.00
2018-02-07T10:11:58.484Z,3.00
2018-02-07T10:14:26.745Z,3.00
2018-02-07T10:16:55.035Z,3.10
2018-02-07T10:19:23.256Z,3.20
2018-02-07T10:21:51.501Z,3.30
2018-02-07T10:24:19.805Z,3.30
2018-02-07T10:26:48.132Z,3.30
2018-02-07T10:29:16.452Z,3.30
2018-02-07T10:31:44.986Z,3.30
2018-02-07T10:34:13.652Z,3.30
2018-02-07T10:36:41.924Z,3.20
2018-02-07T10:39:10.973Z,3.40
2018-02-07T10:41:39.218Z,3.40
2018-02-07T10:44:07.490Z,3.40
2018-02-07T10:46:35.787Z,3.40
2018-02-07T10:49:04.048Z,3.50
2018-02-07T10:51:32.272Z,3.50
2018-02-07T10:54:00.548Z,3.70
2018-02-07T10:56:29.638Z,3.70
2018-02-07T10:58:57.937Z,3.60
2018-02-07T11:01:26.965Z,3.70
2018-02-07T11:03:55.236Z,3.70
2018-02-07T11:06:23.554Z,3.80
2018-02-07T11:08:51.912Z,3.80
2018-02-07T11:11:21.055Z,3.90
2018-02-07T11:13:50.173Z,4.00
2018-02-07T11:16:18.468Z,3.90
2018-02-07T11:18:46.729Z,4.00
2018-02-07T11:21:15.045Z,4.00
2018-02-07T11:23:43.342Z,4.10
2018-02-07T11:26:11.688Z,4.00
2018-02-07T11:28:40.103Z,4.00
2018-02-07T11:31:09.186Z,4.10
2018-02-07T11:33:37.895Z,4.10
2018-02-07T11:36:07.204Z,4.20
2018-02-07T11:38:35.614Z,4.20
2018-02-07T11:41:03.942Z,4.20
2018-02-07T11:43:32.296Z,4.30
2018-02-07T11:46:00.702Z,4.40
2018-02-07T11:48:29.882Z,4.40
2018-02-07T11:50:58.293Z,4.40
2018-02-07T11:53:26.538Z,4.40
2018-02-07T11:55:54.786Z,4.40
2018-02-07T11:58:23.073Z,4.20
2018-02-07T12:00:51.382Z,4.40
2018-02-07T12:03:19.755Z,4.40
2018-02-07T12:05:48.844Z,4.50
2018-02-07T12:08:17.943Z,4.50
2018-02-07T12:10:46.231Z,4.60
2018-02-07T12:13:14.515Z,4.60
2018-02-07T12:15:42.817Z,4.60
2018-02-07T12:18:11.191Z,4.60
2018-02-07T12:20:39.500Z,4.60
2018-02-07T12:23:07.777Z,4.50
2018-02-07T12:25:36.135Z,4.60
2018-02-07T12:28:04.359Z,4.70
2018-02-07T12:30:33.381Z,4.70
2018-02-07T12:33:01.642Z,4.70
2018-02-07T12:35:29.878Z,4.50
2018-02-07T12:37:58.162Z,4.40
2018-02-07T12:40:26.590Z,4.50
2018-02-07T12:42:54.868Z,4.60
2018-02-07T12:45:23.189Z,4.70
2018-02-07T12:47:51.538Z,4.70
2018-02-07T12:50:19.796Z,4.70
2018-02-07T12:52:48.095Z,4.80
2018-02-07T12:55:16.449Z,4.80
2018-02-07T12:57:44.725Z,4.90
2018-02-07T13:00:13.050Z,4.70
2018-02-07T13:02:41.505Z,4.90
2018-02-07T13:05:10.792Z,4.80
2018-02-07T13:07:39.100Z,4.90
2018-02-07T13:10:07.389Z,4.90
2018-02-07T13:12:36.460Z,5.00
2018-02-07T13:15:04.758Z,5.00
2018-02-07T13:17:33.819Z,5.10
2018-02-07T13:20:02.120Z,5.10
2018-02-07T13:22:30.431Z,5.00
2018-02-07T13:24:59.571Z,5.10
2018-02-07T13:27:27.883Z,5.10
2018-02-07T13:29:57.112Z,5.10
2018-02-07T13:32:25.386Z,5.10
2018-02-07T13:34:53.699Z,5.10
2018-02-07T13:37:22.010Z,5.20
2018-02-07T13:39:51.130Z,5.20
2018-02-07T13:42:19.453Z,5.20
2018-02-07T13:44:47.704Z,5.30
2018-02-07T13:47:16.103Z,5.30
2018-02-07T13:49:44.386Z,5.40
2018-02-07T13:52:12.629Z,5.40
2018-02-07T13:54:40.937Z,5.40
2018-02-07T13:57:09.231Z,5.40
2018-02-07T13:59:37.495Z,5.40
2018-02-07T14:02:05.740Z,5.50
2018-02-07T14:04:34.043Z,5.40
2018-02-07T14:07:02.286Z,5.40
2018-02-07T14:09:30.544Z,5.40
2018-02-07T14:11:58.923Z,5.40
2018-02-07T14:14:27.177Z,5.50
2018-02-07T14:16:56.186Z,5.60
2018-02-07T14:19:25.354Z,5.60
2018-02-07T14:21:53.616Z,5.60
2018-02-07T14:24:21.889Z,5.50
2018-02-07T14:26:50.232Z,5.70
2018-02-07T14:29:18.560Z,5.60
2018-02-07T14:31:46.781Z,5.60
2018-02-07T14:34:15.061Z,5.60
2018-02-07T14:36:43.325Z,5.60
2018-02-07T14:39:11.618Z,5.60
2018-02-07T14:41:39.970Z,5.70
2018-02-07T14:44:08.257Z,5.70
2018-02-07T14:46:36.550Z,5.60
2018-02-07T14:49:04.799Z,5.60
2018-02-07T14:51:33.145Z,5.50
2018-02-07T14:54:02.218Z,5.60
2018-02-07T14:56:30.630Z,5.60
2018-02-07T14:58:58.941Z,5.50
2018-02-07T15:01:27.240Z,5.50
2018-02-07T15:03:55.554Z,5.40
2018-02-07T15:06:23.825Z,5.40
2018-02-07T15:08:52.160Z,5.50
2018-02-07T15:11:20.454Z,5.60
2018-02-07T15:13:48.705Z,5.50
2018-02-07T15:16:17.053Z,5.50
2018-02-07T15:18:45.332Z,5.40
2018-02-07T15:21:13.639Z,5.40
2018-02-07T15:23:41.948Z,5.40
2018-02-07T15:26:10.195Z,5.30
2018-02-07T15:28:38.524Z,5.40
2018-02-07T15:31:07.603Z,5.40
2018-02-07T15:33:35.862Z,5.30
2018-02-07T15:36:04.105Z,5.30
2018-02-07T15:38:32.459Z,5.30
2018-02-07T15:41:00.713Z,5.30
2018-02-07T15:43:29.882Z,5.00
2018-02-07T15:45:58.178Z,5.00
2018-02-07T15:48:26.457Z,4.90
2018-02-07T15:50:54.709Z,4.80
2018-02-07T15:53:23.105Z,4.90
2018-02-07T15:55:51.336Z,5.00
2018-02-07T15:58:19.614Z,4.90
2018-02-07T16:00:47.946Z,4.80
2018-02-07T16:03:16.970Z,4.60
2018-02-07T16:05:45.320Z,4.60
2018-02-07T16:08:14.337Z,4.40
2018-02-07T16:10:42.630Z,4.40
2018-02-07T16:13:11.037Z,4.50
2018-02-07T16:15:39.288Z,4.70
2018-02-07T16:18:07.517Z,4.50
2018-02-07T16:20:35.842Z,4.50
2018-02-07T16:23:04.079Z,4.40
2018-02-07T16:25:32.335Z,4.20
2018-02-07T16:28:00.640Z,4.70
2018-02-07T16:30:28.900Z,4.70
2018-02-07T16:32:57.915Z,5.00
2018-02-07T16:35:26.372Z,4.90
2018-02-07T16:37:55.391Z,5.00
2018-02-07T16:40:23.635Z,5.00
2018-02-07T16:42:51.964Z,5.00
2018-02-07T16:45:20.220Z,5.20
2018-02-07T16:47:48.484Z,5.20
2018-02-07T16:50:16.835Z,5.10
2018-02-07T16:52:45.126Z,5.10
2018-02-07T16:55:14.229Z,5.30
2018-02-07T16:57:42.529Z,5.20
2018-02-07T17:00:10.782Z,5.30
2018-02-07T17:02:39.059Z,5.10
2018-02-07T17:05:08.104Z,5.20
2018-02-07T17:07:36.452Z,5.20
2018-02-07T17:10:04.738Z,5.20
2018-02-07T17:12:33.007Z,5.20
2018-02-07T17:15:01.261Z,5.20
2018-02-07T17:17:29.484Z,5.20
2018-02-07T17:19:57.790Z,5.00
2018-02-07T17:22:26.886Z,4.70
2018-02-07T17:24:55.155Z,4.70
2018-02-07T17:27:24.275Z,4.90
2018-02-07T17:29:52.590Z,4.90
2018-02-07T17:32:20.865Z,4.80
2018-02-07T17:34:49.105Z,4.80
2018-02-07T17:37:17.463Z,4.80
2018-02-07T17:39:45.727Z,4.80
2018-02-07T17:42:13.975Z,4.90
2018-02-07T17:44:42.415Z,4.90
2018-02-07T17:47:10.659Z,4.80
2018-02-07T17:49:38.920Z,4.80
2018-02-07T17:52:07.250Z,4.80
2018-02-07T17:54:35.618Z,4.50
2018-02-07T17:57:03.956Z,4.70
2018-02-07T17:59:32.239Z,4.80
2018-02-07T18:02:00.649Z,4.70
2018-02-07T18:04:29.693Z,4.20
2018-02-07T18:06:57.961Z,4.10
2018-02-07T18:09:26.306Z,4.10
2018-02-07T18:11:54.549Z,3.90
2018-02-07T18:14:22.852Z,3.90
2018-02-07T18:16:51.797Z,3.90
2018-02-07T18:19:20.048Z,3.90
2018-02-07T18:21:48.360Z,3.70
2018-02-07T18:24:16.778Z,3.70
2018-02-07T18:26:45.058Z,3.70
2018-02-07T18:29:13.379Z,3.60
2018-02-07T18:31:41.615Z,3.60
2018-02-07T18:34:09.864Z,3.60
2018-02-07T18:36:39.029Z,3.50
2018-02-07T18:39:08.111Z,3.50
2018-02-07T18:41:36.375Z,3.50
2018-02-07T18:44:04.695Z,3.50
2018-02-07T18:46:33.467Z,3.50
2018-02-07T18:49:02.538Z,3.40
2018-02-07T18:51:30.881Z,3.40
2018-02-07T18:53:59.167Z,3.50
2018-02-07T18:56:27.447Z,3.50
2018-02-07T18:58:55.840Z,3.50
2018-02-07T19:01:24.161Z,3.30
2018-02-07T19:03:53.230Z,3.30
2018-02-07T19:06:21.578Z,3.30
2018-02-07T19:08:49.885Z,3.20
2018-02-07T19:11:18.176Z,3.20
2018-02-07T19:13:46.482Z,3.00
2018-02-07T19:16:14.752Z,2.80
2018-02-07T19:18:43.809Z,2.90
2018-02-07T19:21:12.070Z,2.90
2018-02-07T19:23:40.405Z,3.10
2018-02-07T19:26:09.703Z,3.10
2018-02-07T19:28:37.953Z,3.10
2018-02-07T19:31:06.290Z,3.10
2018-02-07T19:33:34.603Z,3.50
2018-02-07T19:36:02.928Z,3.80
2018-02-07T19:38:31.227Z,3.80
2018-02-07T19:40:59.527Z,3.80
2018-02-07T19:43:27.910Z,3.80
2018-02-07T19:45:56.155Z,3.70
2018-02-07T19:48:24.432Z,3.80
2018-02-07T19:50:52.734Z,3.50
2018-02-07T19:53:20.982Z,3.30
2018-02-07T19:55:49.300Z,3.00
2018-02-07T19:58:18.310Z,2.90
2018-02-07T20:00:47.364Z,2.90
2018-02-07T20:03:15.777Z,2.90
2018-02-07T20:05:44.102Z,2.90
2018-02-07T20:08:12.730Z,2.80
2018-02-07T20:10:41.986Z,2.90
2018-02-07T20:13:10.357Z,2.90
2018-02-07T20:15:38.643Z,2.90
2018-02-07T20:18:07.019Z,2.90
2018-02-07T20:20:35.468Z,2.90
2018-02-07T20:23:03.738Z,2.90
2018-02-07T20:25:32.068Z,2.90
2018-02-07T20:28:00.345Z,2.90
2018-02-07T20:30:28.615Z,2.70
2018-02-07T20:32:56.936Z,2.70
2018-02-07T20:35:25.575Z,2.50
2018-02-07T20:37:53.935Z,2.50
2018-02-07T20:40:22.253Z,2.50
2018-02-07T20:42:50.546Z,2.50
2018-02-07T20:45:19.961Z,2.60
2018-02-07T20:47:48.377Z,2.60
2018-02-07T20:50:16.631Z,2.60
2018-02-07T20:52:44.980Z,2.60
2018-02-07T20:55:14.016Z,2.40
2018-02-07T20:57:42.278Z,2.40
2018-02-07T21:00:10.507Z,2.40
2018-02-07T21:02:38.912Z,2.40
2018-02-07T21:05:07.212Z,2.50
2018-02-07T21:07:35.456Z,2.40
2018-02-07T21:10:03.788Z,2.40
2018-02-07T21:12:32.019Z,2.30
2018-02-07T21:15:00.382Z,2.30
2018-02-07T21:17:29.597Z,2.30
2018-02-07T21:19:57.915Z,2.30
2018-02-07T21:22:26.142Z,2.30
2018-02-07T21:24:54.431Z,2.30
2018-02-07T21:27:22.694Z,2.20
2018-02-07T21:29:51.003Z,2.20
2018-02-07T21:32:19.249Z,2.20
2018-02-07T21:34:47.566Z,2.10
2018-02-07T21:37:15.898Z,2.10
2018-02-07T21:39:44.981Z,2.30
2018-02-07T21:42:13.272Z,2.30
2018-02-07T21:44:41.614Z,2.30
2018-02-07T21:47:09.921Z,2.30
2018-02-07T21:49:38.578Z,2.30
2018-02-07T21:52:06.872Z,2.30
2018-02-07T21:54:35.928Z,2.30
2018-02-07T21:57:04.357Z,2.20
2018-02-07T21:59:32.650Z,2.20
2018-02-07T22:02:00.986Z,2.30
2018-02-07T22:04:30.106Z,2.30
2018-02-07T22:06:58.361Z,2.30
2018-02-07T22:09:27.425Z,2.20
2018-02-07T22:11:55.747Z,2.20
2018-02-07T22:14:24.944Z,2.30
2018-02-07T22:16:54.035Z,2.20
2018-02-07T22:19:23.148Z,2.00
2018-02-07T22:21:51.419Z,2.00
2018-02-07T22:24:19.734Z,2.10
2018-02-07T22:26:48.065Z,2.10
2018-02-07T22:29:16.329Z,2.20
2018-02-07T22:31:45.346Z,2.20
2018-02-07T22:34:13.597Z,2.20
2018-02-07T22:36:42.636Z,2.20
2018-02-07T22:39:10.944Z,2.20
2018-02-07T22:41:39.194Z,2.30
2018-02-07T22:44:07.450Z,2.30
2018-02-07T22:46:35.870Z,2.30
2018-02-07T22:49:04.127Z,2.30
2018-02-07T22:51:32.384Z,2.40
2018-02-07T22:54:00.697Z,2.30
2018-02-07T22:56:29.013Z,2.30
2018-02-07T22:58:57.284Z,2.30
2018-02-07T23:01:26.308Z,2.10
2018-02-07T23:03:54.585Z,2.10
2018-02-07T23:06:23.078Z,2.20
2018-02-07T23:08:51.362Z,2.40
2018-02-07T23:11:19.613Z,2.30
2018-02-07T23:13:47.951Z,2.20
2018-02-07T23:16:16.990Z,2.10
2018-02-07T23:18:45.259Z,2.10
2018-02-07T23:21:13.523Z,2.30
2018-02-07T23:23:41.861Z,2.40
2018-02-07T23:26:10.085Z,2.20
2018-02-07T23:28:38.336Z,2.40
2018-02-07T23:31:07.468Z,2.20
2018-02-07T23:33:35.847Z,2.20
2018-02-07T23:36:04.120Z,2.20
2018-02-07T23:38:32.495Z,2.30
2018-02-07T23:41:00.799Z,2.30
2018-02-07T23:43:29.026Z,2.20
2018-02-07T23:45:57.371Z,2.20
2018-02-07T23:48:25.652Z,2.00
2018-02-07T23:50:53.894Z,2.10
2018-02-07T23:53:22.220Z,2.20
2018-02-07T23:55:51.220Z,1.80
2018-02-07T23:58:20.367Z,1.60
